sensor_id;sensor_type;location;lat;lon;timestamp;P1;durP1;ratioP1;P2;durP2;ratioP2
6007;SDS011;3032;49.484;11.112;2024-03-08T00:01:39;30.20;;;15.50;;
6007;SDS011;3032;49.484;11.112;2024-03-08T00:04:05;31.42;;;17.60;;
6007;SDS011;3032;49.484;11.112;2024-03-08T00:06:31;27.27;;;17.63;;
6007;SDS011;3032;49.484;11.112;2024-03-08T00:08:57;30.50;;;17.20;;
6007;SDS011;3032;49.484;11.112;2024-03-08T00:11:23;24.70;;;15.10;;
6007;SDS011;3032;49.484;11.112;2024-03-08T00:13:51;32.30;;;17.65;;
6007;SDS011;3032;49.484;11.112;2024-03-08T00:16:17;28.42;;;15.60;;
6007;SDS011;3032;49.484;11.112;2024-03-08T00:18:48;33.00;;;15.77;;
6007;SDS011;3032;49.484;11.112;2024-03-08T00:21:14;30.60;;;17.55;;
6007;SDS011;3032;49.484;11.112;2024-03-08T00:23:43;36.83;;;17.63;;
6007;SDS011;3032;49.484;11.112;2024-03-08T00:26:09;26.98;;;15.85;;
6007;SDS011;3032;49.484;11.112;2024-03-08T00:28:35;33.80;;;18.10;;
6007;SDS011;3032;49.484;11.112;2024-03-08T00:31:02;27.95;;;16.65;;
6007;SDS011;3032;49.484;11.112;2024-03-08T00:33:29;31.40;;;17.60;;
6007;SDS011;3032;49.484;11.112;2024-03-08T00:35:55;33.15;;;18.90;;
6007;SDS011;3032;49.484;11.112;2024-03-08T00:38:22;29.27;;;16.00;;
6007;SDS011;3032;49.484;11.112;2024-03-08T00:40:48;29.10;;;16.80;;
6007;SDS011;3032;49.484;11.112;2024-03-08T00:43:14;31.57;;;16.87;;
6007;SDS011;3032;49.484;11.112;2024-03-08T00:45:40;32.20;;;17.88;;
6007;SDS011;3032;49.484;11.112;2024-03-08T00:48:08;31.65;;;17.60;;
6007;SDS011;3032;49.484;11.112;2024-03-08T00:50:34;31.45;;;17.40;;
6007;SDS011;3032;49.484;11.112;2024-03-08T00:53:00;28.27;;;15.80;;
6007;SDS011;3032;49.484;11.112;2024-03-08T00:55:27;27.97;;;14.97;;
6007;SDS011;3032;49.484;11.112;2024-03-08T00:57:55;31.80;;;18.38;;
6007;SDS011;3032;49.484;11.112;2024-03-08T01:00:21;34.93;;;18.10;;
6007;SDS011;3032;49.484;11.112;2024-03-08T01:02:46;31.70;;;17.60;;
6007;SDS011;3032;49.484;11.112;2024-03-08T01:05:12;32.15;;;17.40;;
6007;SDS011;3032;49.484;11.112;2024-03-08T01:07:38;30.40;;;17.37;;
6007;SDS011;3032;49.484;11.112;2024-03-08T01:10:04;27.13;;;16.73;;
6007;SDS011;3032;49.484;11.112;2024-03-08T01:12:34;31.42;;;16.48;;
6007;SDS011;3032;49.484;11.112;2024-03-08T01:15:01;24.65;;;14.02;;
6007;SDS011;3032;49.484;11.112;2024-03-08T01:17:27;25.17;;;15.17;;
6007;SDS011;3032;49.484;11.112;2024-03-08T01:19:54;30.98;;;17.45;;
6007;SDS011;3032;49.484;11.112;2024-03-08T01:22:19;26.03;;;15.40;;
6007;SDS011;3032;49.484;11.112;2024-03-08T01:24:45;32.67;;;16.90;;
6007;SDS011;3032;49.484;11.112;2024-03-08T01:27:10;31.63;;;17.73;;
6007;SDS011;3032;49.484;11.112;2024-03-08T01:29:37;28.73;;;16.15;;
6007;SDS011;3032;49.484;11.112;2024-03-08T01:32:03;32.03;;;18.70;;
6007;SDS011;3032;49.484;11.112;2024-03-08T01:34:28;32.17;;;17.13;;
6007;SDS011;3032;49.484;11.112;2024-03-08T01:36:54;32.90;;;18.23;;
6007;SDS011;3032;49.484;11.112;2024-03-08T01:39:22;28.67;;;15.88;;
6007;SDS011;3032;49.484;11.112;2024-03-08T01:41:48;31.80;;;19.30;;
6007;SDS011;3032;49.484;11.112;2024-03-08T01:44:13;31.47;;;18.40;;
6007;SDS011;3032;49.484;11.112;2024-03-08T01:46:46;33.03;;;17.33;;
6007;SDS011;3032;49.484;11.112;2024-03-08T01:49:12;34.72;;;18.85;;
6007;SDS011;3032;49.484;11.112;2024-03-08T01:51:39;31.02;;;18.00;;
6007;SDS011;3032;49.484;11.112;2024-03-08T01:54:06;29.70;;;15.35;;
6007;SDS011;3032;49.484;11.112;2024-03-08T01:56:34;33.72;;;17.73;;
6007;SDS011;3032;49.484;11.112;2024-03-08T01:59:02;30.75;;;17.77;;
6007;SDS011;3032;49.484;11.112;2024-03-08T02:01:28;31.95;;;17.45;;
6007;SDS011;3032;49.484;11.112;2024-03-08T02:03:54;30.17;;;18.70;;
6007;SDS011;3032;49.484;11.112;2024-03-08T02:06:20;32.23;;;17.07;;
6007;SDS011;3032;49.484;11.112;2024-03-08T02:08:45;30.23;;;17.10;;
6007;SDS011;3032;49.484;11.112;2024-03-08T02:11:11;34.93;;;19.37;;
6007;SDS011;3032;49.484;11.112;2024-03-08T02:13:38;35.88;;;17.70;;
6007;SDS011;3032;49.484;11.112;2024-03-08T02:16:03;30.30;;;17.30;;
6007;SDS011;3032;49.484;11.112;2024-03-08T02:18:32;35.28;;;19.73;;
6007;SDS011;3032;49.484;11.112;2024-03-08T02:20:59;35.05;;;18.63;;
6007;SDS011;3032;49.484;11.112;2024-03-08T02:23:27;32.05;;;18.83;;
6007;SDS011;3032;49.484;11.112;2024-03-08T02:25:54;34.03;;;19.63;;
6007;SDS011;3032;49.484;11.112;2024-03-08T02:28:21;34.22;;;19.35;;
6007;SDS011;3032;49.484;11.112;2024-03-08T02:30:48;32.65;;;18.23;;
6007;SDS011;3032;49.484;11.112;2024-03-08T02:33:16;34.63;;;18.02;;
6007;SDS011;3032;49.484;11.112;2024-03-08T02:35:42;33.72;;;18.58;;
6007;SDS011;3032;49.484;11.112;2024-03-08T02:38:10;33.13;;;18.20;;
6007;SDS011;3032;49.484;11.112;2024-03-08T02:40:37;36.70;;;18.25;;
6007;SDS011;3032;49.484;11.112;2024-03-08T02:43:02;33.80;;;19.27;;
6007;SDS011;3032;49.484;11.112;2024-03-08T02:45:30;36.42;;;20.10;;
6007;SDS011;3032;49.484;11.112;2024-03-08T02:47:55;35.13;;;18.73;;
6007;SDS011;3032;49.484;11.112;2024-03-08T02:50:21;31.03;;;18.17;;
6007;SDS011;3032;49.484;11.112;2024-03-08T02:52:47;33.85;;;16.85;;
6007;SDS011;3032;49.484;11.112;2024-03-08T02:55:13;33.43;;;19.00;;
6007;SDS011;3032;49.484;11.112;2024-03-08T02:57:41;33.45;;;19.00;;
6007;SDS011;3032;49.484;11.112;2024-03-08T03:00:08;36.67;;;19.45;;
6007;SDS011;3032;49.484;11.112;2024-03-08T03:02:35;30.60;;;18.25;;
6007;SDS011;3032;49.484;11.112;2024-03-08T03:05:01;32.70;;;17.50;;
6007;SDS011;3032;49.484;11.112;2024-03-08T03:07:30;34.17;;;18.58;;
6007;SDS011;3032;49.484;11.112;2024-03-08T03:09:59;33.30;;;18.20;;
6007;SDS011;3032;49.484;11.112;2024-03-08T03:12:25;36.28;;;18.35;;
6007;SDS011;3032;49.484;11.112;2024-03-08T03:14:52;32.40;;;17.15;;
6007;SDS011;3032;49.484;11.112;2024-03-08T03:17:18;36.70;;;18.17;;
6007;SDS011;3032;49.484;11.112;2024-03-08T03:19:43;34.10;;;19.73;;
6007;SDS011;3032;49.484;11.112;2024-03-08T03:22:09;32.17;;;19.20;;
6007;SDS011;3032;49.484;11.112;2024-03-08T03:24:35;35.83;;;19.92;;
6007;SDS011;3032;49.484;11.112;2024-03-08T03:27:03;33.80;;;18.23;;
6007;SDS011;3032;49.484;11.112;2024-03-08T03:29:35;35.65;;;19.52;;
6007;SDS011;3032;49.484;11.112;2024-03-08T03:32:01;32.75;;;17.80;;
6007;SDS011;3032;49.484;11.112;2024-03-08T03:34:29;29.70;;;14.45;;
6007;SDS011;3032;49.484;11.112;2024-03-08T03:36:54;30.50;;;17.07;;
6007;SDS011;3032;49.484;11.112;2024-03-08T03:39:20;31.77;;;18.73;;
6007;SDS011;3032;49.484;11.112;2024-03-08T03:41:47;34.22;;;19.15;;
6007;SDS011;3032;49.484;11.112;2024-03-08T03:44:17;29.00;;;15.18;;
6007;SDS011;3032;49.484;11.112;2024-03-08T03:46:43;29.33;;;14.57;;
6007;SDS011;3032;49.484;11.112;2024-03-08T03:49:11;35.03;;;20.65;;
6007;SDS011;3032;49.484;11.112;2024-03-08T03:51:37;36.40;;;20.48;;
6007;SDS011;3032;49.484;11.112;2024-03-08T03:54:03;35.87;;;19.20;;
6007;SDS011;3032;49.484;11.112;2024-03-08T03:56:28;35.00;;;20.40;;
6007;SDS011;3032;49.484;11.112;2024-03-08T03:58:55;36.28;;;18.90;;
6007;SDS011;3032;49.484;11.112;2024-03-08T04:01:21;34.72;;;19.20;;
6007;SDS011;3032;49.484;11.112;2024-03-08T04:03:47;34.63;;;19.40;;
6007;SDS011;3032;49.484;11.112;2024-03-08T04:06:12;30.37;;;18.67;;
6007;SDS011;3032;49.484;11.112;2024-03-08T04:08:39;36.00;;;18.77;;
6007;SDS011;3032;49.484;11.112;2024-03-08T04:11:04;34.07;;;17.67;;
6007;SDS011;3032;49.484;11.112;2024-03-08T04:13:30;34.27;;;18.87;;
6007;SDS011;3032;49.484;11.112;2024-03-08T04:15:56;34.73;;;19.37;;
6007;SDS011;3032;49.484;11.112;2024-03-08T04:18:21;38.67;;;20.13;;
6007;SDS011;3032;49.484;11.112;2024-03-08T04:20:47;38.77;;;19.20;;
6007;SDS011;3032;49.484;11.112;2024-03-08T04:23:12;36.20;;;19.70;;
6007;SDS011;3032;49.484;11.112;2024-03-08T04:25:38;39.90;;;19.77;;
6007;SDS011;3032;49.484;11.112;2024-03-08T04:28:03;38.00;;;20.70;;
6007;SDS011;3032;49.484;11.112;2024-03-08T04:30:29;42.27;;;19.50;;
6007;SDS011;3032;49.484;11.112;2024-03-08T04:32:55;38.30;;;18.73;;
6007;SDS011;3032;49.484;11.112;2024-03-08T04:35:21;36.00;;;20.23;;
6007;SDS011;3032;49.484;11.112;2024-03-08T04:37:46;37.40;;;18.90;;
6007;SDS011;3032;49.484;11.112;2024-03-08T04:40:12;35.23;;;18.20;;
6007;SDS011;3032;49.484;11.112;2024-03-08T04:42:37;36.63;;;20.33;;
6007;SDS011;3032;49.484;11.112;2024-03-08T04:45:05;36.00;;;19.02;;
6007;SDS011;3032;49.484;11.112;2024-03-08T04:47:32;38.63;;;20.88;;
6007;SDS011;3032;49.484;11.112;2024-03-08T04:49:58;35.53;;;19.37;;
6007;SDS011;3032;49.484;11.112;2024-03-08T04:52:24;40.90;;;21.65;;
6007;SDS011;3032;49.484;11.112;2024-03-08T04:54:50;37.08;;;19.38;;
6007;SDS011;3032;49.484;11.112;2024-03-08T04:57:16;38.07;;;21.03;;
6007;SDS011;3032;49.484;11.112;2024-03-08T04:59:43;36.67;;;19.55;;
6007;SDS011;3032;49.484;11.112;2024-03-08T05:02:08;39.13;;;21.20;;
6007;SDS011;3032;49.484;11.112;2024-03-08T05:04:34;41.17;;;22.30;;
6007;SDS011;3032;49.484;11.112;2024-03-08T05:07:00;43.33;;;22.67;;
6007;SDS011;3032;49.484;11.112;2024-03-08T05:09:27;39.80;;;22.30;;
6007;SDS011;3032;49.484;11.112;2024-03-08T05:11:54;38.63;;;21.33;;
6007;SDS011;3032;49.484;11.112;2024-03-08T05:14:19;37.33;;;18.20;;
6007;SDS011;3032;49.484;11.112;2024-03-08T05:16:46;41.00;;;22.17;;
6007;SDS011;3032;49.484;11.112;2024-03-08T05:19:18;38.33;;;20.65;;
6007;SDS011;3032;49.484;11.112;2024-03-08T05:21:45;43.22;;;22.90;;
6007;SDS011;3032;49.484;11.112;2024-03-08T05:24:11;40.63;;;20.80;;
6007;SDS011;3032;49.484;11.112;2024-03-08T05:26:38;39.75;;;20.38;;
6007;SDS011;3032;49.484;11.112;2024-03-08T05:29:04;38.80;;;20.20;;
6007;SDS011;3032;49.484;11.112;2024-03-08T05:31:30;42.30;;;20.37;;
6007;SDS011;3032;49.484;11.112;2024-03-08T05:34:13;40.13;;;21.83;;
6007;SDS011;3032;49.484;11.112;2024-03-08T05:36:39;39.53;;;21.95;;
6007;SDS011;3032;49.484;11.112;2024-03-08T05:39:05;42.55;;;22.05;;
6007;SDS011;3032;49.484;11.112;2024-03-08T05:41:32;35.88;;;20.00;;
6007;SDS011;3032;49.484;11.112;2024-03-08T05:43:57;40.97;;;20.97;;
6007;SDS011;3032;49.484;11.112;2024-03-08T05:46:23;41.73;;;21.37;;
6007;SDS011;3032;49.484;11.112;2024-03-08T05:48:48;37.63;;;20.90;;
6007;SDS011;3032;49.484;11.112;2024-03-08T05:51:14;36.30;;;19.20;;
6007;SDS011;3032;49.484;11.112;2024-03-08T05:53:40;42.67;;;22.80;;
6007;SDS011;3032;49.484;11.112;2024-03-08T05:56:05;42.70;;;23.03;;
6007;SDS011;3032;49.484;11.112;2024-03-08T05:58:31;40.43;;;22.77;;
6007;SDS011;3032;49.484;11.112;2024-03-08T06:00:56;42.70;;;19.40;;
6007;SDS011;3032;49.484;11.112;2024-03-08T06:03:22;36.30;;;21.23;;
6007;SDS011;3032;49.484;11.112;2024-03-08T06:05:48;35.97;;;17.93;;
6007;SDS011;3032;49.484;11.112;2024-03-08T06:08:14;38.50;;;21.13;;
6007;SDS011;3032;49.484;11.112;2024-03-08T06:10:40;44.05;;;22.85;;
6007;SDS011;3032;49.484;11.112;2024-03-08T06:13:06;38.23;;;21.60;;
6007;SDS011;3032;49.484;11.112;2024-03-08T06:15:31;36.87;;;22.20;;
6007;SDS011;3032;49.484;11.112;2024-03-08T06:17:57;43.23;;;23.10;;
6007;SDS011;3032;49.484;11.112;2024-03-08T06:20:22;41.50;;;22.90;;
6007;SDS011;3032;49.484;11.112;2024-03-08T06:22:57;43.90;;;23.80;;
6007;SDS011;3032;49.484;11.112;2024-03-08T06:25:23;40.90;;;21.50;;
6007;SDS011;3032;49.484;11.112;2024-03-08T06:27:48;43.13;;;25.13;;
6007;SDS011;3032;49.484;11.112;2024-03-08T06:30:14;38.50;;;22.63;;
6007;SDS011;3032;49.484;11.112;2024-03-08T06:32:41;38.83;;;22.05;;
6007;SDS011;3032;49.484;11.112;2024-03-08T06:35:07;36.38;;;19.67;;
6007;SDS011;3032;49.484;11.112;2024-03-08T06:37:35;39.15;;;24.10;;
6007;SDS011;3032;49.484;11.112;2024-03-08T06:40:01;38.33;;;23.30;;
6007;SDS011;3032;49.484;11.112;2024-03-08T06:42:28;35.22;;;19.88;;
6007;SDS011;3032;49.484;11.112;2024-03-08T06:44:54;36.13;;;21.27;;
6007;SDS011;3032;49.484;11.112;2024-03-08T06:47:24;38.38;;;23.17;;
6007;SDS011;3032;49.484;11.112;2024-03-08T06:49:50;34.83;;;21.77;;
6007;SDS011;3032;49.484;11.112;2024-03-08T06:52:17;40.72;;;21.52;;
6007;SDS011;3032;49.484;11.112;2024-03-08T06:54:42;34.37;;;21.30;;
6007;SDS011;3032;49.484;11.112;2024-03-08T06:57:08;36.27;;;22.47;;
6007;SDS011;3032;49.484;11.112;2024-03-08T06:59:35;35.85;;;20.48;;
6007;SDS011;3032;49.484;11.112;2024-03-08T07:02:01;38.78;;;22.38;;
6007;SDS011;3032;49.484;11.112;2024-03-08T07:04:27;36.50;;;22.38;;
6007;SDS011;3032;49.484;11.112;2024-03-08T07:06:55;32.97;;;19.42;;
6007;SDS011;3032;49.484;11.112;2024-03-08T07:09:22;36.08;;;20.80;;
6007;SDS011;3032;49.484;11.112;2024-03-08T07:11:48;33.70;;;20.95;;
6007;SDS011;3032;49.484;11.112;2024-03-08T07:14:19;33.15;;;21.13;;
6007;SDS011;3032;49.484;11.112;2024-03-08T07:16:48;33.40;;;21.95;;
6007;SDS011;3032;49.484;11.112;2024-03-08T07:19:14;31.20;;;20.73;;
6007;SDS011;3032;49.484;11.112;2024-03-08T07:21:40;36.07;;;23.10;;
6007;SDS011;3032;49.484;11.112;2024-03-08T07:24:07;30.88;;;20.75;;
6007;SDS011;3032;49.484;11.112;2024-03-08T07:26:41;39.17;;;22.17;;
6007;SDS011;3032;49.484;11.112;2024-03-08T07:29:14;31.13;;;20.15;;
6007;SDS011;3032;49.484;11.112;2024-03-08T07:31:40;32.90;;;20.85;;
6007;SDS011;3032;49.484;11.112;2024-03-08T07:34:36;36.75;;;21.38;;
6007;SDS011;3032;49.484;11.112;2024-03-08T07:37:04;32.93;;;19.63;;
6007;SDS011;3032;49.484;11.112;2024-03-08T07:39:39;34.35;;;22.58;;
6007;SDS011;3032;49.484;11.112;2024-03-08T07:42:09;30.50;;;16.42;;
6007;SDS011;3032;49.484;11.112;2024-03-08T07:44:37;34.78;;;19.60;;
6007;SDS011;3032;49.484;11.112;2024-03-08T07:47:06;31.45;;;19.10;;
6007;SDS011;3032;49.484;11.112;2024-03-08T07:49:35;29.98;;;21.05;;
6007;SDS011;3032;49.484;11.112;2024-03-08T07:52:04;32.75;;;19.45;;
6007;SDS011;3032;49.484;11.112;2024-03-08T07:54:33;34.13;;;19.80;;
6007;SDS011;3032;49.484;11.112;2024-03-08T07:57:03;29.80;;;14.63;;
6007;SDS011;3032;49.484;11.112;2024-03-08T07:59:29;31.23;;;18.70;;
6007;SDS011;3032;49.484;11.112;2024-03-08T08:02:07;32.10;;;19.73;;
6007;SDS011;3032;49.484;11.112;2024-03-08T08:04:33;33.42;;;20.83;;
6007;SDS011;3032;49.484;11.112;2024-03-08T08:07:16;34.47;;;20.88;;
6007;SDS011;3032;49.484;11.112;2024-03-08T08:09:47;32.28;;;19.27;;
6007;SDS011;3032;49.484;11.112;2024-03-08T08:12:22;29.27;;;18.35;;
6007;SDS011;3032;49.484;11.112;2024-03-08T08:14:56;30.77;;;19.10;;
6007;SDS011;3032;49.484;11.112;2024-03-08T08:17:27;32.17;;;21.05;;
6007;SDS011;3032;49.484;11.112;2024-03-08T08:20:02;30.33;;;18.20;;
6007;SDS011;3032;49.484;11.112;2024-03-08T08:22:34;30.08;;;19.38;;
6007;SDS011;3032;49.484;11.112;2024-03-08T08:25:06;30.17;;;20.13;;
6007;SDS011;3032;49.484;11.112;2024-03-08T08:27:38;27.88;;;19.45;;
6007;SDS011;3032;49.484;11.112;2024-03-08T08:30:29;28.98;;;19.15;;
6007;SDS011;3032;49.484;11.112;2024-03-08T08:33:10;32.10;;;21.05;;
6007;SDS011;3032;49.484;11.112;2024-03-08T08:35:50;28.60;;;19.67;;
6007;SDS011;3032;49.484;11.112;2024-03-08T08:38:29;28.70;;;21.60;;
6007;SDS011;3032;49.484;11.112;2024-03-08T08:41:09;31.35;;;21.35;;
6007;SDS011;3032;49.484;11.112;2024-03-08T08:43:52;30.33;;;20.95;;
6007;SDS011;3032;49.484;11.112;2024-03-08T08:46:25;28.17;;;20.80;;
6007;SDS011;3032;49.484;11.112;2024-03-08T08:48:57;31.35;;;21.70;;
6007;SDS011;3032;49.484;11.112;2024-03-08T08:51:48;29.27;;;20.15;;
6007;SDS011;3032;49.484;11.112;2024-03-08T08:54:17;27.55;;;19.65;;
6007;SDS011;3032;49.484;11.112;2024-03-08T08:56:48;24.60;;;17.50;;
6007;SDS011;3032;49.484;11.112;2024-03-08T08:59:27;31.42;;;20.48;;
6007;SDS011;3032;49.484;11.112;2024-03-08T09:02:10;28.02;;;18.40;;
6007;SDS011;3032;49.484;11.112;2024-03-08T09:04:45;26.95;;;17.50;;
6007;SDS011;3032;49.484;11.112;2024-03-08T09:07:18;25.83;;;16.73;;
6007;SDS011;3032;49.484;11.112;2024-03-08T09:10:04;21.88;;;16.25;;
6007;SDS011;3032;49.484;11.112;2024-03-08T09:12:44;25.13;;;17.02;;
6007;SDS011;3032;49.484;11.112;2024-03-08T09:18:28;21.75;;;14.82;;
6007;SDS011;3032;49.484;11.112;2024-03-08T09:21:00;25.50;;;17.25;;
6007;SDS011;3032;49.484;11.112;2024-03-08T09:23:30;24.63;;;17.85;;
6007;SDS011;3032;49.484;11.112;2024-03-08T09:25:59;21.92;;;15.00;;
6007;SDS011;3032;49.484;11.112;2024-03-08T09:28:34;23.83;;;16.40;;
6007;SDS011;3032;49.484;11.112;2024-03-08T09:31:11;23.38;;;14.45;;
6007;SDS011;3032;49.484;11.112;2024-03-08T09:33:42;19.90;;;14.23;;
6007;SDS011;3032;49.484;11.112;2024-03-08T09:36:20;19.88;;;14.75;;
6007;SDS011;3032;49.484;11.112;2024-03-08T09:38:57;23.90;;;15.38;;
6007;SDS011;3032;49.484;11.112;2024-03-08T09:41:26;17.67;;;14.07;;
6007;SDS011;3032;49.484;11.112;2024-03-08T09:43:55;19.70;;;15.48;;
6007;SDS011;3032;49.484;11.112;2024-03-08T09:46:30;20.75;;;15.68;;
6007;SDS011;3032;49.484;11.112;2024-03-08T09:48:56;21.98;;;16.05;;
6007;SDS011;3032;49.484;11.112;2024-03-08T09:51:24;21.50;;;16.67;;
6007;SDS011;3032;49.484;11.112;2024-03-08T09:54:07;20.23;;;15.25;;
6007;SDS011;3032;49.484;11.112;2024-03-08T09:56:37;19.20;;;14.40;;
6007;SDS011;3032;49.484;11.112;2024-03-08T09:59:06;18.60;;;13.50;;
6007;SDS011;3032;49.484;11.112;2024-03-08T10:02:09;19.45;;;14.05;;
6007;SDS011;3032;49.484;11.112;2024-03-08T10:04:52;21.05;;;14.88;;
6007;SDS011;3032;49.484;11.112;2024-03-08T10:07:21;18.83;;;13.23;;
6007;SDS011;3032;49.484;11.112;2024-03-08T10:10:05;19.95;;;14.38;;
6007;SDS011;3032;49.484;11.112;2024-03-08T10:12:34;17.25;;;12.27;;
6007;SDS011;3032;49.484;11.112;2024-03-08T10:15:09;17.83;;;12.70;;
6007;SDS011;3032;49.484;11.112;2024-03-08T10:17:34;21.90;;;14.37;;
6007;SDS011;3032;49.484;11.112;2024-03-08T10:20:14;19.20;;;12.95;;
6007;SDS011;3032;49.484;11.112;2024-03-08T10:22:44;18.30;;;13.43;;
6007;SDS011;3032;49.484;11.112;2024-03-08T10:25:28;16.73;;;12.30;;
6007;SDS011;3032;49.484;11.112;2024-03-08T10:27:55;20.40;;;13.45;;
6007;SDS011;3032;49.484;11.112;2024-03-08T10:30:51;15.35;;;11.75;;
6007;SDS011;3032;49.484;11.112;2024-03-08T10:33:27;16.55;;;13.70;;
6007;SDS011;3032;49.484;11.112;2024-03-08T10:35:56;16.88;;;12.95;;
6007;SDS011;3032;49.484;11.112;2024-03-08T10:38:22;17.25;;;13.13;;
6007;SDS011;3032;49.484;11.112;2024-03-08T10:40:51;18.02;;;10.55;;
6007;SDS011;3032;49.484;11.112;2024-03-08T10:43:24;16.08;;;12.15;;
6007;SDS011;3032;49.484;11.112;2024-03-08T10:45:59;17.25;;;12.70;;
6007;SDS011;3032;49.484;11.112;2024-03-08T10:48:45;15.45;;;12.05;;
6007;SDS011;3032;49.484;11.112;2024-03-08T10:51:17;17.95;;;12.90;;
6007;SDS011;3032;49.484;11.112;2024-03-08T10:53:50;16.48;;;12.80;;
6007;SDS011;3032;49.484;11.112;2024-03-08T10:56:28;16.02;;;12.77;;
6007;SDS011;3032;49.484;11.112;2024-03-08T10:58:59;20.20;;;13.10;;
6007;SDS011;3032;49.484;11.112;2024-03-08T11:01:33;13.25;;;11.10;;
6007;SDS011;3032;49.484;11.112;2024-03-08T11:04:06;12.00;;;10.63;;
6007;SDS011;3032;49.484;11.112;2024-03-08T11:09:31;12.68;;;8.00;;
6007;SDS011;3032;49.484;11.112;2024-03-08T11:17:49;13.35;;;10.27;;
6007;SDS011;3032;49.484;11.112;2024-03-08T11:20:23;14.73;;;10.63;;
6007;SDS011;3032;49.484;11.112;2024-03-08T11:23:05;14.30;;;9.88;;
6007;SDS011;3032;49.484;11.112;2024-03-08T11:25:40;12.82;;;9.38;;
6007;SDS011;3032;49.484;11.112;2024-03-08T11:28:21;11.45;;;9.65;;
6007;SDS011;3032;49.484;11.112;2024-03-08T11:33:42;17.98;;;9.50;;
6007;SDS011;3032;49.484;11.112;2024-03-08T11:36:29;12.52;;;9.55;;
6007;SDS011;3032;49.484;11.112;2024-03-08T11:39:07;11.80;;;8.30;;
6007;SDS011;3032;49.484;11.112;2024-03-08T11:41:39;10.32;;;8.10;;
6007;SDS011;3032;49.484;11.112;2024-03-08T11:44:13;13.15;;;8.93;;
6007;SDS011;3032;49.484;11.112;2024-03-08T11:46:41;10.73;;;9.05;;
6007;SDS011;3032;49.484;11.112;2024-03-08T11:49:15;9.52;;;7.90;;
6007;SDS011;3032;49.484;11.112;2024-03-08T11:51:51;12.60;;;9.20;;
6007;SDS011;3032;49.484;11.112;2024-03-08T11:54:23;11.10;;;8.85;;
6007;SDS011;3032;49.484;11.112;2024-03-08T11:57:03;12.73;;;8.80;;
6007;SDS011;3032;49.484;11.112;2024-03-08T11:59:53;10.07;;;8.30;;
6007;SDS011;3032;49.484;11.112;2024-03-08T12:02:26;11.25;;;8.25;;
6007;SDS011;3032;49.484;11.112;2024-03-08T12:04:56;11.70;;;8.90;;
6007;SDS011;3032;49.484;11.112;2024-03-08T12:07:27;14.35;;;8.88;;
6007;SDS011;3032;49.484;11.112;2024-03-08T12:12:49;11.88;;;9.40;;
6007;SDS011;3032;49.484;11.112;2024-03-08T12:15:48;19.23;;;10.32;;
6007;SDS011;3032;49.484;11.112;2024-03-08T12:18:26;11.05;;;9.00;;
6007;SDS011;3032;49.484;11.112;2024-03-08T12:21:04;12.88;;;9.05;;
6007;SDS011;3032;49.484;11.112;2024-03-08T12:23:33;12.98;;;9.52;;
6007;SDS011;3032;49.484;11.112;2024-03-08T12:26:22;13.43;;;10.23;;
6007;SDS011;3032;49.484;11.112;2024-03-08T12:28:52;13.38;;;10.77;;
6007;SDS011;3032;49.484;11.112;2024-03-08T12:31:17;12.93;;;10.60;;
6007;SDS011;3032;49.484;11.112;2024-03-08T12:36:17;14.65;;;10.55;;
6007;SDS011;3032;49.484;11.112;2024-03-08T12:38:47;15.15;;;12.18;;
6007;SDS011;3032;49.484;11.112;2024-03-08T12:41:17;14.73;;;11.88;;
6007;SDS011;3032;49.484;11.112;2024-03-08T12:43:44;16.95;;;12.70;;
6007;SDS011;3032;49.484;11.112;2024-03-08T12:46:16;16.63;;;12.35;;
6007;SDS011;3032;49.484;11.112;2024-03-08T12:48:45;19.80;;;12.57;;
6007;SDS011;3032;49.484;11.112;2024-03-08T12:51:14;16.83;;;13.25;;
6007;SDS011;3032;49.484;11.112;2024-03-08T12:53:44;16.08;;;13.68;;
6007;SDS011;3032;49.484;11.112;2024-03-08T12:56:11;17.88;;;12.50;;
6007;SDS011;3032;49.484;11.112;2024-03-08T12:58:37;15.55;;;11.90;;
6007;SDS011;3032;49.484;11.112;2024-03-08T13:01:04;19.58;;;12.57;;
6007;SDS011;3032;49.484;11.112;2024-03-08T13:03:35;17.23;;;13.32;;
6007;SDS011;3032;49.484;11.112;2024-03-08T13:06:02;16.45;;;12.60;;
6007;SDS011;3032;49.484;11.112;2024-03-08T13:08:35;12.73;;;9.18;;
6007;SDS011;3032;49.484;11.112;2024-03-08T13:11:03;14.90;;;11.60;;
6007;SDS011;3032;49.484;11.112;2024-03-08T13:13:33;16.98;;;11.05;;
6007;SDS011;3032;49.484;11.112;2024-03-08T13:16:01;18.75;;;12.98;;
6007;SDS011;3032;49.484;11.112;2024-03-08T13:18:28;14.02;;;11.10;;
6007;SDS011;3032;49.484;11.112;2024-03-08T13:20:56;16.27;;;11.40;;
6007;SDS011;3032;49.484;11.112;2024-03-08T13:23:32;14.65;;;11.50;;
6007;SDS011;3032;49.484;11.112;2024-03-08T13:26:10;15.93;;;11.73;;
6007;SDS011;3032;49.484;11.112;2024-03-08T13:28:44;17.17;;;11.73;;
6007;SDS011;3032;49.484;11.112;2024-03-08T13:31:21;16.58;;;12.15;;
6007;SDS011;3032;49.484;11.112;2024-03-08T13:33:54;12.48;;;10.77;;
6007;SDS011;3032;49.484;11.112;2024-03-08T13:36:44;13.05;;;10.30;;
6007;SDS011;3032;49.484;11.112;2024-03-08T13:39:55;15.93;;;12.38;;
6007;SDS011;3032;49.484;11.112;2024-03-08T13:42:36;13.70;;;11.75;;
6007;SDS011;3032;49.484;11.112;2024-03-08T13:45:07;13.35;;;10.75;;
6007;SDS011;3032;49.484;11.112;2024-03-08T13:47:38;13.65;;;11.23;;
6007;SDS011;3032;49.484;11.112;2024-03-08T13:50:17;11.73;;;10.45;;
6007;SDS011;3032;49.484;11.112;2024-03-08T13:53:19;13.70;;;11.70;;
6007;SDS011;3032;49.484;11.112;2024-03-08T13:55:47;14.40;;;9.65;;
6007;SDS011;3032;49.484;11.112;2024-03-08T13:58:13;14.63;;;11.15;;
6007;SDS011;3032;49.484;11.112;2024-03-08T14:00:45;12.43;;;9.27;;
6007;SDS011;3032;49.484;11.112;2024-03-08T14:03:16;13.38;;;10.10;;
6007;SDS011;3032;49.484;11.112;2024-03-08T14:05:43;14.00;;;10.48;;
6007;SDS011;3032;49.484;11.112;2024-03-08T14:08:10;12.35;;;10.05;;
6007;SDS011;3032;49.484;11.112;2024-03-08T14:10:45;10.88;;;9.20;;
6007;SDS011;3032;49.484;11.112;2024-03-08T14:13:15;15.32;;;9.60;;
6007;SDS011;3032;49.484;11.112;2024-03-08T14:15:43;13.18;;;9.85;;
6007;SDS011;3032;49.484;11.112;2024-03-08T14:18:14;12.20;;;10.10;;
6007;SDS011;3032;49.484;11.112;2024-03-08T14:20:40;13.20;;;8.70;;
6007;SDS011;3032;49.484;11.112;2024-03-08T14:23:07;13.25;;;10.20;;
6007;SDS011;3032;49.484;11.112;2024-03-08T14:25:38;11.90;;;10.32;;
6007;SDS011;3032;49.484;11.112;2024-03-08T14:28:04;12.75;;;10.02;;
6007;SDS011;3032;49.484;11.112;2024-03-08T14:30:43;17.30;;;11.68;;
6007;SDS011;3032;49.484;11.112;2024-03-08T14:33:08;12.60;;;10.00;;
6007;SDS011;3032;49.484;11.112;2024-03-08T14:35:35;11.07;;;9.55;;
6007;SDS011;3032;49.484;11.112;2024-03-08T14:38:08;12.65;;;10.27;;
6007;SDS011;3032;49.484;11.112;2024-03-08T14:40:37;9.73;;;8.73;;
6007;SDS011;3032;49.484;11.112;2024-03-08T14:43:04;16.65;;;10.70;;
6007;SDS011;3032;49.484;11.112;2024-03-08T14:45:41;15.50;;;10.75;;
6007;SDS011;3032;49.484;11.112;2024-03-08T14:48:15;11.90;;;10.40;;
6007;SDS011;3032;49.484;11.112;2024-03-08T14:50:40;12.20;;;9.93;;
6007;SDS011;3032;49.484;11.112;2024-03-08T14:53:09;12.48;;;9.70;;
6007;SDS011;3032;49.484;11.112;2024-03-08T14:55:35;12.68;;;9.93;;
6007;SDS011;3032;49.484;11.112;2024-03-08T14:58:05;16.27;;;9.57;;
6007;SDS011;3032;49.484;11.112;2024-03-08T15:00:31;14.50;;;8.70;;
6007;SDS011;3032;49.484;11.112;2024-03-08T15:03:05;13.30;;;10.25;;
6007;SDS011;3032;49.484;11.112;2024-03-08T15:05:38;12.73;;;9.27;;
6007;SDS011;3032;49.484;11.112;2024-03-08T15:08:07;13.52;;;10.13;;
6007;SDS011;3032;49.484;11.112;2024-03-08T15:10:57;13.02;;;9.15;;
6007;SDS011;3032;49.484;11.112;2024-03-08T15:13:24;12.82;;;9.70;;